Time;durP1;ratioP1;P1;durP2;ratioP2;P2;SDS_P1;SDS_P2;PMS_P1;PMS_P2;Temp;Humidity;BMP_temperature;BMP_pressure;BME280_temperature;BME280_humidity;BME280_pressure;Samples;Min_cycle;Max_cycle;Signal;HPM_P1;HPM_P2
2022/08/11 00:02:00;;;;;;;2.50;1.23;;;18.10;79.80;;;17.42;100.00;97976.28;4941569;28;20460;-65
2022/08/11 00:04:35;;;;;;;8.48;1.38;;;18.00;80.00;;;17.44;100.00;97980.50;4947327;28;20498;-65
2022/08/11 00:07:05;;;;;;;3.58;1.30;;;18.00;80.20;;;17.32;100.00;97981.31;4957078;28;20051;-65
2022/08/11 00:09:36;;;;;;;3.15;1.00;;;17.90;80.60;;;17.23;100.00;97974.84;4962221;28;20105;-65
2022/08/11 00:12:14;;;;;;;3.60;1.33;;;17.90;80.50;;;17.28;100.00;97979.81;4958231;28;20070;-65
2022/08/11 00:14:42;;;;;;;4.10;1.15;;;17.80;80.90;;;17.15;100.00;97982.34;4956699;28;20583;-65
2022/08/11 00:17:16;;;;;;;3.47;1.30;;;;;;;17.10;100.00;97981.81;4954592;28;20138;-65
2022/08/11 00:19:45;;;;;;;2.58;1.00;;;;;;;17.01;100.00;97982.38;4957659;28;20043;-65
2022/08/11 00:22:34;;;;;;;2.53;1.10;;;;;;;17.16;100.00;97984.03;4939103;28;20059;-65
2022/08/11 00:25:13;;;;;;;5.07;1.42;;;17.60;99.90;;;17.04;100.00;97990.91;4946667;28;20058;-65
2022/08/11 00:27:41;;;;;;;3.35;1.40;;;17.70;81.90;;;16.96;100.00;97989.69;4943677;28;20079;-65
2022/08/11 00:30:10;;;;;;;3.50;1.23;;;17.60;82.50;;;16.96;100.00;97987.06;4942234;28;20050;-65
2022/08/11 00:32:52;;;;;;;3.45;1.75;;;17.50;83.00;;;16.76;100.00;97989.09;4958142;28;20044;-66
2022/08/11 00:35:25;;;;;;;6.55;1.20;;;;;;;16.74;100.00;97988.38;4955239;28;20149;-65
2022/08/11 00:38:13;;;;;;;2.85;1.35;;;17.30;83.10;;;16.41;100.00;97984.22;4955617;28;20051;-65
2022/08/11 00:41:21;;;;;;;2.38;1.20;;;17.10;83.80;;;16.21;100.00;97995.03;4940332;28;20133;-65
2022/08/11 00:44:22;;;;;;;4.78;1.33;;;17.10;84.10;;;16.27;100.00;97989.44;4940204;28;20047;-65
2022/08/11 00:47:16;;;;;;;4.72;1.30;;;17.00;85.00;;;16.29;100.00;97991.03;4955563;28;20146;-65
2022/08/11 00:50:22;;;;;;;6.03;1.50;;;16.90;85.20;;;16.39;100.00;97980.00;4953330;28;20134;-65
2022/08/11 00:53:34;;;;;;;5.88;1.30;;;16.90;84.90;;;16.42;100.00;97982.44;4941080;28;20147;-65
2022/08/11 00:56:25;;;;;;;4.38;1.25;;;16.90;84.70;;;16.45;100.00;97990.13;4940509;28;20146;-65
2022/08/11 00:59:04;;;;;;;4.22;1.45;;;17.00;84.70;;;16.40;100.00;97990.41;4938333;28;20063;-65
2022/08/11 01:02:16;;;;;;;8.48;1.65;;;17.00;84.60;;;16.56;100.00;97986.84;4937010;29;20609;-65
2022/08/11 01:05:04;;;;;;;4.10;1.42;;;17.00;84.40;;;16.70;100.00;97989.50;4945050;28;20044;-66
2022/08/11 01:08:11;;;;;;;3.33;1.20;;;17.10;84.10;;;16.76;100.00;97983.00;4937941;29;20059;-65
2022/08/11 01:11:16;;;;;;;5.13;1.50;;;17.10;83.90;;;16.85;100.00;97992.97;4941875;28;20424;-66
2022/08/11 01:14:09;;;;;;;4.28;1.27;;;17.30;83.80;;;16.85;100.00;97991.19;4921311;29;20140;-65
2022/08/11 01:16:51;;;;;;;5.00;1.63;;;17.30;83.80;;;16.87;100.00;97988.47;4942060;28;20066;-65
2022/08/11 01:20:08;;;;;;;5.55;1.38;;;17.40;83.70;;;16.94;100.00;97992.41;4940747;29;20130;-65
2022/08/11 01:23:02;;;;;;;2.15;1.10;;;17.40;83.50;;;16.69;100.00;97983.41;4939798;28;20934;-66
2022/08/11 01:26:46;;;;;;;2.72;1.10;;;17.40;83.90;;;16.80;100.00;97988.00;4957993;28;20059;-66
2022/08/11 01:30:02;;;;;;;3.30;1.10;;;17.30;84.00;;;16.66;100.00;97985.38;4931564;28;20070;-64
2022/08/11 01:33:00;;;;;;;3.08;1.30;;;17.20;85.10;;;16.52;100.00;97988.81;4934203;29;20457;-65
2022/08/11 01:35:55;;;;;;;2.40;1.10;;;17.10;84.80;;;16.48;100.00;97989.94;4942420;28;20433;-65
2022/08/11 01:39:05;;;;;;;2.17;1.10;;;17.00;85.60;;;16.34;100.00;97993.38;4940806;29;20062;-66
2022/08/11 01:45:30;;;;;;;3.17;1.10;;;16.90;86.20;;;16.49;100.00;97991.63;4939111;29;20134;-65
2022/08/11 01:48:23;;;;;;;2.25;1.20;;;16.90;86.00;;;16.38;100.00;97994.88;4958220;28;20095;-65
2022/08/11 01:51:37;;;;;;;2.05;0.93;;;16.80;86.60;;;16.18;100.00;98001.28;4929416;28;20062;-65
2022/08/11 01:54:54;;;;;;;3.10;1.27;;;16.80;86.80;;;16.09;100.00;98000.06;4955805;28;20374;-65
2022/08/11 01:57:42;;;;;;;5.22;1.30;;;16.70;86.80;;;16.14;100.00;97993.72;4935132;28;20047;-65
2022/08/11 02:00:18;;;;;;;4.35;1.20;;;16.70;86.80;;;16.14;100.00;98001.56;4938696;29;20480;-65
2022/08/11 02:03:05;;;;;;;2.85;1.27;;;16.70;87.00;;;16.18;100.00;97997.84;4962195;28;20047;-65
2022/08/11 02:05:46;;;;;;;2.70;1.20;;;16.70;87.00;;;16.19;100.00;97996.91;4942349;28;20134;-65
2022/08/11 02:08:21;;;;;;;8.68;1.35;;;16.70;87.10;;;16.18;100.00;98000.47;4956927;28;20688;-65
2022/08/11 02:11:29;;;;;;;3.47;1.25;;;16.70;87.10;;;16.16;100.00;97994.47;4939914;28;20048;-65
2022/08/11 02:14:36;;;;;;;3.67;1.45;;;16.70;87.40;;;16.04;100.00;97978.53;4940938;28;20502;-65
2022/08/11 02:17:20;;;;;;;3.20;1.45;;;16.60;87.60;;;15.97;100.00;97985.06;4955848;28;20048;-65
2022/08/11 02:26:38;;;;;;;4.13;1.98;;;16.50;88.40;;;15.88;100.00;97999.53;4954922;28;20052;-65
2022/08/11 02:29:31;;;;;;;5.00;1.35;;;16.50;88.70;;;15.68;100.00;97995.38;4947884;28;20430;-65
2022/08/11 02:35:40;;;;;;;3.63;1.33;;;16.30;89.50;;;15.65;100.00;97995.56;4955109;28;20089;-65
2022/08/11 02:38:42;;;;;;;6.15;1.30;;;16.30;89.60;;;15.73;100.00;97995.16;4954547;28;20058;-65
2022/08/11 02:44:59;;;;;;;3.40;1.45;;;16.30;89.80;;;15.59;100.00;97995.06;4953626;28;20102;-65
2022/08/11 02:49:52;;;;;;;5.72;1.27;;;16.20;90.10;;;15.55;100.00;97994.38;4954191;28;20055;-65
2022/08/11 02:51:02;;;;;;;2.97;1.10;;;16.20;90.30;;;15.51;100.00;97994.63;4938872;28;20528;-65
2022/08/11 02:54:06;;;;;;;2.75;1.20;;;16.10;90.40;;;15.47;100.00;98002.66;4943923;28;20063;-65
2022/08/11 02:56:55;;;;;;;2.10;1.10;;;16.10;90.60;;;15.41;100.00;98005.63;4944920;28;20781;-65
2022/08/11 02:59:53;;;;;;;4.88;1.20;;;16.00;90.70;;;15.45;100.00;98001.91;4941374;29;20138;-65
2022/08/11 03:02:30;;;;;;;5.22;1.27;;;16.00;90.70;;;15.53;100.00;98008.47;4955774;28;20455;-65
2022/08/11 03:04:57;;;;;;;3.83;1.10;;;16.10;90.70;;;15.52;100.00;98007.66;4956001;28;20086;-65
2022/08/11 03:07:43;;;;;;;4.25;1.50;;;16.10;90.70;;;15.43;100.00;98010.78;4939618;29;20055;-65
2022/08/11 03:10:22;;;;;;;3.58;1.42;;;16.00;90.90;;;15.46;100.00;98011.47;4956951;28;20083;-64
2022/08/11 03:16:55;;;;;;;7.05;1.58;;;16.00;90.80;;;15.43;100.00;98005.53;4955686;28;20390;-64
2022/08/11 03:20:14;;;;;;;3.40;1.45;;;16.00;91.00;;;15.32;100.00;98007.91;4954691;28;20513;-65
2022/08/11 03:23:07;;;;;;;4.10;1.38;;;16.00;91.10;;;15.28;100.00;98009.88;4956512;28;20051;-65
2022/08/11 03:26:07;;;;;;;3.03;1.50;;;15.90;91.30;;;15.21;100.00;98004.13;4954278;28;20512;-64
2022/08/11 03:29:09;;;;;;;3.72;1.40;;;15.80;91.50;;;15.10;100.00;98011.69;4942842;28;20122;-64
2022/08/11 03:31:54;;;;;;;5.15;1.60;;;15.80;91.70;;;15.03;100.00;98010.34;4954914;28;20408;-65
2022/08/11 03:34:25;;;;;;;4.65;1.42;;;15.70;91.70;;;15.06;100.00;98004.94;4954735;28;20129;-64
2022/08/11 03:37:50;;;;;;;2.33;1.05;;;15.70;91.80;;;15.13;100.00;98008.91;4957298;28;20197;-65
2022/08/11 03:44:37;;;;;;;5.13;1.35;;;15.70;91.90;;;15.05;100.00;98009.34;4954376;28;20047;-65
2022/08/11 03:48:01;;;;;;;3.40;1.50;;;15.70;92.00;;;15.11;100.00;98010.75;4936528;28;21304;-64
2022/08/11 03:50:57;;;;;;;3.10;1.50;;;15.70;92.00;;;15.08;100.00;98013.56;4942066;29;20087;-64
2022/08/11 03:53:56;;;;;;;4.32;1.88;;;15.70;92.10;;;15.03;100.00;98011.19;4948288;28;20073;-64
2022/08/11 03:56:59;;;;;;;2.60;1.40;;;15.70;92.10;;;15.06;100.00;98016.25;4936197;28;20154;-64
2022/08/11 03:59:50;;;;;;;4.60;1.90;;;15.70;92.20;;;15.05;100.00;98011.94;4943507;28;20061;-64
2022/08/11 04:02:41;;;;;;;3.35;1.65;;;15.70;92.30;;;15.05;100.00;98018.94;4940605;28;20323;-64
2022/08/11 04:05:47;;;;;;;5.03;1.63;;;15.60;92.40;;;15.06;100.00;98008.41;4938946;29;20083;-64
2022/08/11 04:08:53;;;;;;;3.25;1.60;;;15.70;92.50;;;15.05;100.00;98014.56;4936313;28;20054;-64
2022/08/11 04:11:54;;;;;;;7.07;1.80;;;15.60;92.50;;;15.10;100.00;98009.09;4941180;28;20094;-64
2022/08/11 04:17:45;;;;;;;2.83;1.80;;;15.70;92.60;;;15.13;100.00;98011.53;4953371;28;20187;-64
2022/08/11 04:20:56;;;;;;;3.85;1.58;;;15.70;92.60;;;15.06;100.00;98008.41;4939296;29;20127;-65
2022/08/11 04:24:18;;;;;;;8.40;1.85;;;15.70;92.70;;;15.00;100.00;98006.09;4921500;28;20056;-64
2022/08/11 04:27:34;;;;;;;10.88;2.55;;;15.70;92.80;;;15.08;100.00;98013.56;4954001;28;20047;-64
2022/08/11 04:30:49;;;;;;;3.33;1.55;;;15.70;92.80;;;15.12;100.00;98007.25;4957531;28;20212;-64
2022/08/11 04:33:46;;;;;;;3.85;1.40;;;15.70;92.90;;;15.05;100.00;98001.50;4942950;28;20138;-64
2022/08/11 04:40:02;;;;;;;4.80;1.50;;;15.70;92.90;;;15.17;100.00;98002.59;4956024;28;20067;-64
2022/08/11 04:46:05;;;;;;;4.85;1.73;;;15.70;92.90;;;15.18;100.00;98001.66;4939890;28;20047;-64
2022/08/11 05:02:17;;;;;;;4.13;1.70;;;15.70;93.50;;;15.04;100.00;98019.88;4940952;28;20051;-64
2022/08/11 05:05:30;;;;;;;5.22;1.60;;;15.70;93.70;;;15.00;100.00;98013.94;4937054;29;20044;-64
2022/08/11 05:08:35;;;;;;;3.57;1.60;;;15.70;93.90;;;15.01;100.00;98014.81;4940818;28;20079;-64
2022/08/11 05:11:43;;;;;;;3.45;1.50;;;15.70;94.10;;;14.98;100.00;98021.03;4939433;29;20052;-64
2022/08/11 05:34:53;;;;;;;4.68;1.60;;;16.50;94.30;;;16.02;100.00;98009.19;4935076;28;20142;-64
2022/08/11 05:37:31;;;;;;;6.00;1.70;;;16.70;93.90;;;16.21;100.00;98015.97;4942051;28;20039;-64
2022/08/11 05:57:37;;;;;;;5.78;1.70;;;18.30;91.40;;;17.82;100.00;98029.72;4935177;28;20055;-64
2022/08/11 06:00:18;;;;;;;5.13;1.73;;;18.50;91.00;;;17.97;100.00;98025.25;4951793;28;20525;-64
2022/08/11 06:02:54;;;;;;;4.80;1.73;;;18.70;90.90;;;18.13;100.00;98018.06;4933831;28;20048;-64
2022/08/11 06:05:22;;;;;;;5.20;1.73;;;18.90;90.90;;;18.29;100.00;98019.66;4953818;28;20138;-65
2022/08/11 06:07:54;;;;;;;3.47;1.50;;;19.10;90.00;;;18.48;100.00;98019.28;4951811;28;20063;-64
2022/08/11 06:10:34;;;;;;;2.78;1.58;;;19.20;88.50;;;18.71;100.00;98015.91;4938371;28;20051;-64
2022/08/11 06:13:04;;;;;;;4.07;1.73;;;19.40;88.30;;;18.75;100.00;98012.13;4937651;28;20075;-62
2022/08/11 06:15:42;;;;;;;4.22;1.48;;;19.60;88.70;;;18.91;100.00;98019.84;4953041;28;20495;-64
2022/08/11 06:18:11;;;;;;;4.20;1.40;;;19.80;87.60;;;19.09;100.00;98020.34;4935694;28;20416;-64
2022/08/11 06:20:49;;;;;;;3.88;1.60;;;19.90;86.90;;;19.32;100.00;98018.72;4952020;28;20481;-63
2022/08/11 06:23:22;;;;;;;4.25;1.30;;;20.10;86.70;;;19.48;100.00;98020.22;4934472;28;20386;-64
2022/08/11 06:25:52;;;;;;;4.82;1.55;;;20.30;87.50;;;19.58;100.00;98021.25;4954278;28;20106;-63
2022/08/11 06:28:30;;;;;;;;;;;20.40;85.20;;;19.72;100.00;98023.75;4953258;28;20052;-64
2022/08/11 06:30:59;;;;;;;6.95;1.30;;;20.50;85.70;;;19.78;100.00;98018.03;4950378;28;19930;-64
2022/08/11 06:33:35;;;;;;;7.07;1.92;;;20.70;83.90;;;19.85;100.00;98015.81;4949164;28;20068;-64
2022/08/11 06:36:16;;;;;;;2.72;1.60;;;20.70;83.60;;;19.75;100.00;98023.56;4953322;28;20480;-64
2022/08/11 06:39:22;;;;;;;5.72;1.30;;;20.80;83.00;;;20.08;100.00;98013.28;4955634;28;20050;-64
2022/08/11 06:42:35;;;;;;;3.38;1.38;;;20.90;83.50;;;20.13;100.00;98024.31;4916014;28;20048;-64
2022/08/11 06:45:29;;;;;;;5.57;1.73;;;21.00;82.90;;;20.13;100.00;98019.03;4941630;28;20048;-64
2022/08/11 06:47:59;;;;;;;4.30;1.67;;;21.10;82.10;;;20.34;100.00;98027.94;4940348;28;20065;-64
2022/08/11 06:53:18;;;;;;;5.22;1.63;;;21.20;81.90;;;20.44;100.00;98028.13;4947794;28;20402;-64
2022/08/11 07:01:46;;;;;;;3.55;1.42;;;21.50;80.70;;;20.79;100.00;98021.97;4950134;28;20099;-64
2022/08/11 07:04:48;;;;;;;2.95;1.33;;;21.60;80.80;;;20.87;100.00;98022.22;4933999;29;20389;-64
2022/08/11 07:16:18;;;;;;;9.45;1.90;;;22.10;80.00;;;21.13;100.00;98022.00;4948507;28;20066;-64
2022/08/11 07:30:59;;;;;;;4.15;1.60;;;22.60;80.20;;;21.75;100.00;98029.34;4939101;28;20484;-65
2022/08/11 07:33:41;;;;;;;4.63;1.63;;;22.80;80.20;;;21.71;100.00;98020.84;4939683;28;20126;-65
2022/08/11 07:36:30;;;;;;;3.38;1.40;;;22.80;79.70;;;21.83;100.00;98016.38;4940580;28;20132;-65
2022/08/11 07:38:58;;;;;;;5.43;1.95;;;22.90;79.70;;;21.75;100.00;98024.06;4937361;29;20047;-65
2022/08/11 07:41:31;;;;;;;6.13;1.60;;;22.90;79.20;;;21.76;100.00;98015.19;4957207;28;20138;-65
2022/08/11 07:44:08;;;;;;;6.05;1.42;;;22.90;79.20;;;22.07;100.00;98020.59;4957601;28;20175;-65
2022/08/11 07:52:31;;;;;;;5.78;1.60;;;23.10;78.90;;;21.98;100.00;98019.53;4941974;28;20243;-65
2022/08/11 07:55:15;;;;;;;5.97;1.45;;;23.00;78.20;;;22.23;100.00;98023.66;4954047;28;20062;-65
2022/08/11 08:17:56;;;;;;;3.10;1.23;;;24.00;76.80;;;23.04;100.00;98008.03;4943902;29;20043;-65
2022/08/11 08:20:48;;;;;;;4.10;1.60;;;23.90;76.10;;;23.37;100.00;98006.03;4943125;29;20050;-65
2022/08/11 08:23:34;;;;;;;4.38;1.42;;;24.20;77.10;;;23.73;100.00;98003.75;4951696;28;20154;-65
2022/08/11 08:26:57;;;;;;;4.68;1.30;;;24.40;76.70;;;23.77;100.00;97999.88;4951882;28;20135;-65
2022/08/11 08:30:45;;;;;;;12.48;1.55;;;24.60;75.80;;;23.73;100.00;98004.56;4951093;28;20048;-65
2022/08/11 08:31:44;;;;;;;4.25;1.50;;;24.60;75.20;;;23.76;100.00;98006.13;4931347;29;20545;-65
2022/08/11 08:34:13;;;;;;;6.38;1.40;;;24.60;75.00;;;24.01;100.00;98002.94;4938626;29;20055;-65
2022/08/11 08:36:51;;;;;;;7.07;1.25;;;24.80;75.40;;;23.94;100.00;98007.13;4953281;28;20059;-66
2022/08/11 08:39:20;;;;;;;6.78;1.60;;;24.90;74.80;;;24.24;100.00;98007.13;4953601;28;20052;-65
2022/08/11 08:41:58;;;;;;;4.18;1.30;;;25.10;75.00;;;24.17;100.00;97997.06;4948204;28;20051;-65
2022/08/11 08:44:26;;;;;;;3.92;1.38;;;25.50;73.90;;;24.49;100.00;98006.56;4956395;28;20818;-65
2022/08/11 08:47:17;;;;;;;2.13;1.00;;;25.70;73.10;;;24.83;100.00;97996.25;4952519;28;20158;-65
2022/08/11 08:50:13;;;;;;;3.78;1.13;;;25.80;73.00;;;24.77;100.00;97996.00;4934503;29;20064;-65
2022/08/11 08:52:51;;;;;;;2.35;1.00;;;26.00;71.50;;;24.77;100.00;98004.81;4955362;28;20501;-65
2022/08/11 08:55:20;;;;;;;4.75;1.00;;;26.10;71.90;;;25.40;100.00;97998.81;4943867;28;20098;-65
2022/08/11 08:57:51;;;;;;;3.83;1.45;;;26.20;71.10;;;25.78;100.00;98004.06;4942772;28;20738;-65
2022/08/11 09:00:20;;;;;;;;;;;26.50;70.90;;;25.78;100.00;98006.72;4960341;28;20135;-65
2022/08/11 09:02:51;;;;;;;3.95;1.17;;;26.60;70.50;;;26.26;98.24;98005.53;4942742;28;19926;-65
2022/08/11 09:05:20;;;;;;;3.88;1.15;;;26.80;69.90;;;26.01;97.31;98010.63;4942760;28;20119;-65
2022/08/11 09:07:52;;;;;;;1.73;1.00;;;26.80;69.40;;;26.68;94.66;98012.84;4952300;28;20087;-65
2022/08/11 09:10:22;;;;;;;2.45;1.00;;;27.10;69.30;;;27.11;90.63;98005.75;4956310;28;20044;-64
2022/08/11 09:12:50;;;;;;;4.57;1.10;;;27.30;68.70;;;28.12;88.74;97991.53;4942180;28;20096;-65
2022/08/11 09:15:18;;;;;;;3.38;1.27;;;27.80;68.90;;;27.53;82.95;97997.78;4956979;28;20118;-64
2022/08/11 09:18:04;;;;;;;3.95;1.10;;;27.80;67.00;;;27.79;80.06;97999.50;4941510;29;20051;-65
2022/08/11 09:20:35;;;;;;;3.15;1.05;;;27.90;66.40;;;27.28;83.61;97999.53;4956004;28;20051;-65
2022/08/11 09:29:00;;;;;;;2.67;1.27;;;28.60;66.80;;;29.58;72.48;97989.56;4955327;28;20171;-64
2022/08/11 09:31:34;;;;;;;3.78;1.10;;;28.80;65.70;;;29.78;72.91;97994.47;4957416;28;20472;-65
2022/08/11 09:34:08;;;;;;;4.47;1.00;;;29.10;66.40;;;29.35;72.22;97992.19;4939810;29;20054;-64
2022/08/11 09:42:12;;;;;;;5.97;1.30;;;29.40;64.20;;;29.11;73.52;97989.63;4948444;28;20071;-65
2022/08/11 09:44:49;;;;;;;5.80;1.30;;;29.50;64.80;;;29.20;72.07;97983.22;4949475;28;20054;-65
2022/08/11 09:47:21;;;;;;;4.93;1.15;;;29.60;64.30;;;29.17;71.38;97976.38;4939457;28;20454;-65
2022/08/11 09:49:51;;;;;;;5.78;1.05;;;29.50;64.00;;;29.14;67.40;97983.91;4957366;28;20059;-65
2022/08/11 09:52:19;;;;;;;3.10;0.77;;;29.40;63.30;;;29.32;65.48;97987.16;4935234;28;20138;-65
2022/08/11 09:54:48;;;;;;;2.05;0.77;;;29.40;63.00;;;30.69;61.68;97984.69;4937893;28;20189;-64
2022/08/11 10:00:10;;;;;;;3.60;0.70;;;30.00;62.00;;;29.61;62.25;97989.19;4950795;28;20090;-65
2022/08/11 10:02:47;;;;;;;3.75;0.90;;;29.70;61.90;;;30.32;60.18;97972.19;4940172;29;20505;-64
2022/08/11 10:08:06;;;;;;;7.10;0.90;;;30.10;61.50;;;29.43;57.20;97980.59;4948976;28;20099;-65
2022/08/11 10:10:37;;;;;;;3.20;0.77;;;29.70;60.20;;;30.15;56.46;97982.16;4951965;28;20544;-65
2022/08/11 10:13:18;;;;;;;2.38;0.82;;;30.10;60.70;;;29.91;53.43;97975.16;4936411;28;20512;-65
2022/08/11 10:16:10;;;;;;;4.75;0.90;;;29.90;59.60;;;30.39;52.76;97976.63;4944654;28;20465;-65
2022/08/11 10:18:51;;;;;;;5.13;1.15;;;30.40;60.00;;;28.63;60.94;97973.53;4956774;28;20138;-65
2022/08/11 10:21:38;;;;;;;3.28;0.80;;;29.60;61.00;;;29.36;59.07;97964.44;4943086;28;20055;-65
2022/08/11 10:27:57;;;;;;;3.50;0.93;;;29.60;61.20;;;29.57;58.79;97963.78;4938921;28;20090;-65
2022/08/11 10:36:31;;;;;;;2.90;0.90;;;29.70;61.50;;;29.32;61.40;97951.59;4934221;28;20501;-64
2022/08/11 10:39:01;;;;;;;4.65;1.00;;;29.60;61.70;;;30.18;58.97;97947.00;4955907;28;20150;-65
2022/08/11 10:44:41;;;;;;;2.95;1.10;;;30.40;61.20;;;30.15;59.86;97947.34;4939704;28;20341;-65
2022/08/11 11:01:11;;;;;;;4.32;1.15;;;31.40;61.50;;;31.97;56.70;97939.66;4942082;28;20083;-64
2022/08/11 11:03:39;;;;;;;3.80;0.93;;;31.70;61.40;;;32.35;54.66;97925.94;4943333;28;20047;-64
2022/08/11 11:06:30;;;;;;;2.85;0.70;;;32.00;61.20;;;31.56;54.63;97930.34;4961566;28;20126;-64
2022/08/11 11:09:10;;;;;;;4.13;0.97;;;31.70;60.10;;;32.95;54.24;97932.50;4960357;28;20052;-65
2022/08/11 11:20:32;;;;;;;4.35;1.13;;;31.80;59.80;;;30.87;56.75;97930.75;4944480;28;20146;-64
2022/08/11 11:23:49;;;;;;;3.88;1.10;;;31.30;60.40;;;30.22;58.62;97924.19;4949674;28;20044;-65
2022/08/11 11:26:45;;;;;;;3.70;1.30;;;31.00;60.60;;;29.99;61.32;97919.72;4954182;28;20090;-64
2022/08/11 11:29:52;;;;;;;9.15;1.20;;;30.60;61.00;;;30.11;58.85;97913.94;4942886;28;20143;-65
2022/08/11 11:32:34;;;;;;;6.78;1.30;;;30.60;61.00;;;30.57;59.37;97911.97;4940615;29;20083;-64
2022/08/11 11:36:14;;;;;;;5.82;1.10;;;30.70;62.10;;;29.68;61.51;97918.97;4943763;28;20094;-65
2022/08/11 11:38:41;;;;;;;4.82;1.00;;;30.40;60.90;;;30.45;59.51;97892.03;4875564;28;20134;-64
2022/08/11 11:41:23;;;;;;;4.25;1.10;;;30.80;61.20;;;30.94;57.00;97907.56;4946414;28;20134;-65
2022/08/11 11:43:56;;;;;;;3.67;0.93;;;30.90;61.00;;;31.25;54.85;97906.50;4946450;28;20130;-65
2022/08/11 11:46:29;;;;;;;3.60;1.00;;;31.10;60.40;;;31.31;55.30;97896.84;4961258;28;20121;-64
2022/08/11 11:48:57;;;;;;;4.80;1.00;;;31.40;60.50;;;31.42;53.54;97899.06;4953552;28;20077;-64
2022/08/11 11:51:26;;;;;;;5.28;1.08;;;31.50;60.00;;;31.21;54.93;97891.78;4943162;28;20126;-65
2022/08/11 11:53:54;;;;;;;1.88;0.80;;;31.30;60.20;;;31.08;54.08;97886.28;4944674;28;20071;-64
2022/08/11 11:56:23;;;;;;;3.92;1.00;;;31.60;59.80;;;31.41;54.44;97881.31;4947498;28;20127;-64
2022/08/11 12:01:42;;;;;;;2.85;0.90;;;32.00;59.80;;;32.20;51.90;97886.56;4953410;28;20047;-65
2022/08/11 12:04:17;;;;;;;3.78;0.70;;;32.00;59.90;;;32.40;49.89;97870.56;4954568;28;20083;-65
2022/08/11 12:06:45;;;;;;;2.75;0.88;;;32.30;59.00;;;34.00;49.63;97867.59;4937319;28;20130;-64
2022/08/11 12:09:22;;;;;;;2.28;0.90;;;;;;;33.31;46.70;97886.53;4947927;28;20179;-65
2022/08/11 12:14:36;;;;;;;13.50;1.00;;;32.60;57.70;;;32.37;47.59;97870.16;4956319;28;20430;-65
2022/08/11 12:17:03;;;;;;;8.45;1.85;;;32.70;58.20;;;31.68;48.21;97859.06;4947042;29;20070;-65
2022/08/11 12:19:31;;;;;;;2.55;0.70;;;32.10;58.00;;;32.01;48.83;97863.09;4953776;28;20158;-64
2022/08/11 12:27:33;;;;;;;2.63;1.02;;;32.20;58.00;;;32.80;46.33;97857.38;4952233;28;20477;-64
2022/08/11 12:30:08;;;;;;;5.57;0.80;;;32.30;58.10;;;32.09;46.83;97854.88;4942750;28;20058;-65
2022/08/11 12:32:37;;;;;;;6.60;1.00;;;32.30;57.60;;;31.56;45.80;97849.88;4944459;28;20134;-65
2022/08/11 12:35:07;;;;;;;5.72;1.13;;;32.00;57.20;;;31.81;46.59;97854.84;4954434;28;20058;-65
2022/08/11 12:37:44;;;;;;;2.42;0.90;;;31.90;57.50;;;31.28;46.09;97855.16;4956620;28;20146;-65
2022/08/11 12:46:21;;;;;;;4.72;0.90;;;31.80;57.40;;;31.28;46.61;97855.16;4952156;28;20137;-65
2022/08/11 12:51:57;;;;;;;2.13;0.80;;;31.00;57.10;;;31.20;46.21;97842.69;4940127;28;20115;-64
2022/08/11 12:55:01;;;;;;;2.30;0.80;;;31.20;57.40;;;30.42;46.93;97841.50;4954635;28;20489;-64
2022/08/11 13:06:01;;;;;;;4.20;0.80;;;31.90;56.80;;;31.43;46.62;97831.81;4950923;28;20575;-64
2022/08/11 13:08:34;;;;;;;2.45;0.80;;;32.10;57.20;;;31.54;44.90;97825.06;4955739;28;20053;-64
2022/08/11 13:13:51;;;;;;;3.55;1.10;;;32.50;56.60;;;32.42;44.27;97816.66;4944136;28;20145;-65
2022/08/11 13:19:24;;;;;;;2.35;0.88;;;32.50;55.10;;;32.02;42.75;97806.50;4940192;28;20087;-67
2022/08/11 13:21:52;;;;;;;2.47;0.70;;;32.90;55.70;;;31.71;42.19;97811.41;4941139;28;20062;-65
2022/08/11 13:24:20;;;;;;;5.35;0.80;;;33.20;55.00;;;32.20;42.75;97799.78;4950306;28;20691;-65
2022/08/11 13:26:49;;;;;;;5.55;0.90;;;33.40;55.30;;;32.62;41.46;97793.41;4939021;28;20564;-65
2022/08/11 13:29:23;;;;;;;2.55;1.00;;;33.60;55.00;;;31.78;40.36;97804.25;4940136;28;20058;-66
2022/08/11 13:31:54;;;;;;;2.65;0.80;;;33.20;54.00;;;33.11;39.38;97803.09;4935758;28;20477;-65
2022/08/11 13:34:25;;;;;;;4.43;0.85;;;34.20;54.80;;;32.94;39.38;97803.66;4956192;28;20052;-65
2022/08/11 13:36:56;;;;;;;3.58;0.85;;;34.50;53.90;;;34.47;38.87;97796.44;4941642;28;20453;-65
2022/08/11 13:39:31;;;;;;;4.88;0.80;;;35.30;54.50;;;34.89;37.51;97793.38;4954338;28;20104;-66
2022/08/11 13:42:00;;;;;;;3.92;0.80;;;36.00;54.30;;;34.31;36.47;97794.22;4954902;28;20501;-65
2022/08/11 13:44:31;;;;;;;4.55;0.90;;;36.10;52.70;;;33.39;37.43;97788.66;4939980;28;20134;-66
2022/08/11 13:47:02;;;;;;;3.67;0.80;;;35.30;52.50;;;34.15;37.96;97788.25;4952996;28;20130;-65
2022/08/11 13:49:34;;;;;;;1.63;0.60;;;35.80;53.40;;;34.66;36.10;97781.25;4943499;28;20081;-66
2022/08/11 13:52:11;;;;;;;2.42;0.68;;;36.20;52.30;;;34.74;35.22;97764.00;4951567;28;20052;-65
2022/08/11 13:54:40;;;;;;;4.20;0.90;;;36.50;52.00;;;35.58;35.77;97772.78;4942803;28;20051;-66
2022/08/11 13:57:11;;;;;;;10.45;1.02;;;36.60;52.90;;;34.77;35.15;97779.75;4955496;28;20238;-66
2022/08/11 14:00:08;;;;;;;6.80;0.95;;;36.70;51.90;;;34.57;34.45;97779.81;4951537;28;20051;-65
2022/08/11 14:02:51;;;;;;;3.05;0.85;;;36.50;51.10;;;35.24;35.80;97774.94;4951190;28;20048;-67
2022/08/11 14:05:26;;;;;;;2.58;0.80;;;37.50;51.90;;;34.79;34.55;97772.28;4937340;28;20126;-67
2022/08/11 14:08:08;;;;;;;4.40;0.80;;;37.10;51.00;;;33.42;36.41;97774.78;4940686;28;20274;-64
2022/08/11 14:14:09;;;;;;;6.75;1.20;;;35.70;51.70;;;34.08;35.76;97755.06;4949848;28;20051;-66
2022/08/11 14:16:41;;;;;;;2.63;0.80;;;36.70;51.40;;;35.87;34.71;97760.50;4952570;28;20808;-66
2022/08/11 14:19:12;;;;;;;3.40;0.90;;;37.70;51.80;;;35.15;32.88;97762.75;4938142;28;20058;-66
2022/08/11 14:24:48;;;;;;;2.45;0.90;;;37.80;50.50;;;34.99;33.33;97754.09;4948957;28;20118;-65
2022/08/11 14:27:17;;;;;;;4.15;0.90;;;37.50;50.10;;;35.57;33.02;97754.94;4954303;28;20114;-64
2022/08/11 14:30:53;;;;;;;3.03;0.80;;;38.10;50.50;;;36.77;33.11;97751.00;4954510;28;20055;-65
2022/08/11 14:32:52;;;;;;;3.55;0.90;;;38.90;51.10;;;37.64;30.95;97732.38;4941506;29;20137;-65
2022/08/11 14:35:24;;;;;;;3.90;0.80;;;39.30;49.80;;;37.58;31.30;97735.19;4949023;28;20058;-65
2022/08/11 14:37:55;;;;;;;5.85;0.90;;;;;;;37.27;31.91;97737.16;4943752;28;20056;-65
2022/08/11 14:49:00;;;;;;;2.33;0.80;;;39.50;50.60;;;35.70;32.23;97733.25;4942226;28;20141;-65
2022/08/11 14:51:27;;;;;;;1.50;0.60;;;38.40;48.90;;;37.08;32.47;97732.88;4946128;28;20057;-65
2022/08/11 14:56:34;;;;;;;1.65;0.75;;;39.00;50.00;;;36.13;31.84;97723.47;4956185;28;20540;-65
2022/08/11 14:56:43;;;;;;;1.83;0.60;;;38.70;49.30;;;36.09;32.00;97733.06;4938897;28;20047;-65
2022/08/11 14:59:12;;;;;;;2.75;0.85;;;38.70;49.50;;;35.51;32.49;97720.72;4956905;28;20130;-65
2022/08/11 15:04:25;;;;;;;5.57;0.90;;;39.10;50.10;;;36.51;31.38;97720.50;4954034;28;20080;-65
2022/08/11 15:07:03;;;;;;;2.13;0.80;;;39.60;48.90;;;36.12;31.79;97728.03;4958247;28;20079;-66
2022/08/11 15:09:45;;;;;;;4.40;0.95;;;39.20;48.90;;;35.90;31.93;97714.16;4940668;28;20062;-66
2022/08/11 15:12:33;;;;;;;;;;;38.60;49.00;;;35.70;31.74;97716.22;4943020;28;20044;-65
2022/08/11 15:17:57;;;;;;;5.90;0.90;;;38.20;49.40;;;35.52;32.07;97711.59;4942600;28;20142;-65
2022/08/11 15:26:11;;;;;;;2.50;0.85;;;39.80;49.00;;;36.76;31.28;97706.03;4955233;28;20102;-65
2022/08/11 15:37:29;;;;;;;4.95;0.88;;;40.20;55.10;;;36.21;31.81;97691.56;4951421;28;21644;-66
2022/08/11 15:46:30;;;;;;;6.43;0.90;;;39.10;53.60;;;35.75;32.33;97689.38;4941348;28;20039;-66
2022/08/11 15:49:04;;;;;;;3.20;1.00;;;38.70;48.90;;;36.15;32.55;97697.91;4956177;28;20130;-67
2022/08/11 15:51:40;;;;;;;5.35;1.00;;;39.10;49.50;;;37.67;33.42;97691.28;4957064;28;20047;-66
2022/08/11 15:54:19;;;;;;;4.10;0.80;;;;;;;39.52;30.55;97679.31;4953552;28;20052;-66